Time;durP1;ratioP1;P1;durP2;ratioP2;P2;SDS_P1;SDS_P2;PMS_P1;PMS_P2;Temp;Humidity;BMP_temperature;BMP_pressure;BME280_temperature;BME280_humidity;BME280_pressure;Samples;Min_cycle;Max_cycle;Signal;HPM_P1;HPM_P2
2021/06/15 00:01:56;;;;;;;16.00;14.73;;;17.90;99.90;;;;;;4973412;28;20459;-67
2021/06/15 00:04:22;;;;;;;16.03;14.80;;;17.90;99.90;;;;;;4973321;28;20462;-65
2021/06/15 00:06:49;;;;;;;16.20;14.93;;;17.90;99.90;;;;;;4972877;28;20460;-66
2021/06/15 00:09:16;;;;;;;16.37;14.90;;;17.90;99.90;;;;;;4973115;28;20464;-67
2021/06/15 00:11:43;;;;;;;17.53;15.93;;;18.00;99.90;;;;;;4973294;28;20460;-67
2021/06/15 00:14:09;;;;;;;15.43;14.00;;;17.90;99.90;;;;;;4973062;28;20455;-67
2021/06/15 00:16:37;;;;;;;17.83;16.60;;;17.90;99.90;;;;;;4973107;28;20938;-67
2021/06/15 00:19:04;;;;;;;15.47;14.23;;;17.80;99.90;;;;;;4973079;28;20463;-67
2021/06/15 00:21:31;;;;;;;15.50;14.60;;;17.70;99.90;;;;;;4972786;28;20447;-68
2021/06/15 00:23:57;;;;;;;16.03;14.87;;;17.70;99.90;;;;;;4972933;28;20805;-67
2021/06/15 00:26:24;;;;;;;16.13;15.13;;;17.70;99.90;;;;;;4972822;28;20590;-67
2021/06/15 00:28:51;;;;;;;16.30;14.93;;;17.70;99.90;;;;;;4972821;28;20836;-67
2021/06/15 00:31:19;;;;;;;15.33;14.03;;;17.70;99.90;;;;;;4972857;28;20487;-67
2021/06/15 00:33:47;;;;;;;15.00;14.10;;;17.60;99.90;;;;;;4972477;28;20456;-67
2021/06/15 00:36:13;;;;;;;15.43;14.20;;;17.60;99.90;;;;;;4972606;28;20451;-68
2021/06/15 00:38:40;;;;;;;14.17;13.37;;;17.60;99.90;;;;;;4972887;28;20448;-67
2021/06/15 00:41:07;;;;;;;14.70;13.80;;;17.70;99.90;;;;;;4972393;28;20478;-69
2021/06/15 00:43:33;;;;;;;14.50;13.50;;;17.70;99.90;;;;;;4972696;28;20463;-69
2021/06/15 00:46:00;;;;;;;16.83;15.60;;;17.70;99.90;;;;;;4972646;28;20456;-68
2021/06/15 00:48:31;;;;;;;16.03;14.83;;;17.70;99.90;;;;;;4972499;28;20893;-68
2021/06/15 00:51:00;;;;;;;13.50;12.80;;;17.60;99.90;;;;;;4972669;28;20459;-68
2021/06/15 00:53:27;;;;;;;15.63;14.50;;;17.60;99.90;;;;;;4972559;28;20484;-67
2021/06/15 00:55:54;;;;;;;16.37;15.27;;;17.50;99.90;;;;;;4972693;28;20459;-68
2021/06/15 00:58:21;;;;;;;16.10;15.10;;;17.50;99.90;;;;;;4972589;28;20479;-67
2021/06/15 01:00:48;;;;;;;16.07;14.97;;;17.50;99.90;;;;;;4972113;28;20462;-67
2021/06/15 01:03:16;;;;;;;16.70;15.43;;;17.40;99.90;;;;;;4971988;28;20459;-67
2021/06/15 01:05:44;;;;;;;16.00;14.80;;;17.40;99.90;;;;;;4972190;28;20538;-67
2021/06/15 01:08:23;;;;;;;14.70;13.80;;;17.40;99.90;;;;;;4972205;28;20487;-67
2021/06/15 01:10:58;;;;;;;14.13;13.33;;;17.40;99.90;;;;;;4971988;28;20884;-66
2021/06/15 01:13:41;;;;;;;15.30;14.10;;;17.50;99.90;;;;;;4972241;28;20443;-67
2021/06/15 01:16:17;;;;;;;14.80;14.00;;;17.40;99.90;;;;;;4972111;28;20452;-68
2021/06/15 01:18:49;;;;;;;15.80;14.70;;;17.40;99.90;;;;;;4971897;28;20554;-68
2021/06/15 01:21:19;;;;;;;15.03;14.10;;;17.40;99.90;;;;;;4971931;28;20455;-67
2021/06/15 01:24:05;;;;;;;15.33;14.40;;;17.30;99.90;;;;;;4971929;28;20456;-67
2021/06/15 01:26:53;;;;;;;15.23;14.23;;;17.30;99.90;;;;;;4971980;28;20737;-67
2021/06/15 01:29:25;;;;;;;15.80;14.30;;;17.40;99.90;;;;;;4972034;28;20487;-67
2021/06/15 01:31:54;;;;;;;15.20;14.30;;;17.30;99.90;;;;;;4972361;28;20456;-67
2021/06/15 01:34:26;;;;;;;14.87;13.80;;;17.30;99.90;;;;;;4971763;28;20452;-67
2021/06/15 01:37:00;;;;;;;15.97;14.80;;;17.30;99.90;;;;;;4972453;28;20459;-67
2021/06/15 01:39:32;;;;;;;15.37;13.83;;;17.20;99.90;;;;;;4971909;28;20942;-67
2021/06/15 01:42:06;;;;;;;14.40;13.60;;;17.20;99.90;;;;;;4971436;28;20503;-67
2021/06/15 01:44:36;;;;;;;14.60;13.80;;;17.20;99.90;;;;;;4972016;28;20463;-67
2021/06/15 01:47:06;;;;;;;15.67;14.50;;;17.10;99.90;;;;;;4971808;28;20456;-68
2021/06/15 01:49:39;;;;;;;15.90;14.50;;;17.10;99.90;;;;;;4971587;28;20450;-67
2021/06/15 01:52:08;;;;;;;16.27;15.17;;;17.00;99.90;;;;;;4972340;28;20494;-67
2021/06/15 01:54:37;;;;;;;17.30;16.07;;;17.00;99.90;;;;;;4974616;28;20774;-67
2021/06/15 01:57:05;;;;;;;15.33;14.43;;;16.90;99.90;;;;;;4975924;28;20443;-67
2021/06/15 01:59:35;;;;;;;16.20;15.10;;;16.90;99.90;;;;;;4976046;28;20446;-67
2021/06/15 02:02:02;;;;;;;15.63;14.30;;;16.90;99.90;;;;;;4975693;28;20459;-67
2021/06/15 02:04:34;;;;;;;14.50;13.60;;;16.90;99.90;;;;;;4975828;28;20458;-67
2021/06/15 02:07:01;;;;;;;15.23;14.07;;;16.90;99.90;;;;;;4975733;28;20452;-67
2021/06/15 02:09:32;;;;;;;16.30;15.20;;;16.90;99.90;;;;;;4975804;28;20487;-67
2021/06/15 02:11:59;;;;;;;15.37;14.23;;;16.80;99.90;;;;;;4975756;28;20960;-67
2021/06/15 02:14:27;;;;;;;14.63;13.63;;;16.80;99.90;;;;;;4976077;28;20455;-68
2021/06/15 02:16:58;;;;;;;15.50;14.50;;;16.70;99.90;;;;;;4975558;28;20824;-68
2021/06/15 02:19:27;;;;;;;15.63;14.73;;;16.60;99.90;;;;;;4975816;28;20838;-67
2021/06/15 02:21:56;;;;;;;15.03;14.03;;;16.50;99.90;;;;;;4975954;28;20455;-66
2021/06/15 02:24:25;;;;;;;14.57;13.47;;;16.50;99.90;;;;;;4975382;28;20455;-66
2021/06/15 02:26:52;;;;;;;15.80;14.73;;;16.40;99.90;;;;;;4975660;28;20452;-66
2021/06/15 02:29:19;;;;;;;14.63;13.83;;;16.40;99.90;;;;;;4975220;28;20487;-66
2021/06/15 02:31:52;;;;;;;15.80;14.60;;;16.30;99.90;;;;;;4975066;28;20841;-66
2021/06/15 02:34:22;;;;;;;17.03;15.73;;;16.40;99.90;;;;;;4975285;28;20455;-66
2021/06/15 02:36:50;;;;;;;15.83;14.70;;;16.30;99.90;;;;;;4975160;28;20456;-66
2021/06/15 02:39:20;;;;;;;15.27;14.27;;;16.30;99.90;;;;;;4975162;28;20455;-67
2021/06/15 02:41:48;;;;;;;16.30;15.10;;;16.30;99.90;;;;;;4974907;28;20572;-66
2021/06/15 02:44:18;;;;;;;16.13;15.13;;;16.40;99.90;;;;;;4974899;28;20459;-67
2021/06/15 02:46:48;;;;;;;15.33;14.13;;;16.40;99.90;;;;;;4975369;28;20506;-67
2021/06/15 02:49:19;;;;;;;15.70;14.80;;;16.40;99.90;;;;;;4975071;28;20447;-67
2021/06/15 02:51:54;;;;;;;14.80;13.90;;;16.40;99.90;;;;;;4974940;28;20646;-67
2021/06/15 02:54:24;;;;;;;15.63;14.63;;;16.30;99.90;;;;;;4974892;28;20817;-67
2021/06/15 02:56:54;;;;;;;15.20;14.20;;;16.30;99.90;;;;;;4974800;28;20467;-68
2021/06/15 02:59:21;;;;;;;15.60;14.53;;;16.30;99.90;;;;;;4974489;28;20483;-67
2021/06/15 03:01:48;;;;;;;15.03;14.13;;;16.20;99.90;;;;;;4975048;28;20455;-66
2021/06/15 03:04:16;;;;;;;15.47;14.50;;;16.10;99.90;;;;;;4974478;28;20961;-69
2021/06/15 03:07:19;;;;;;;15.70;14.70;;;16.10;99.90;;;;;;4973600;28;20463;-67
2021/06/15 03:09:47;;;;;;;16.10;15.10;;;16.10;99.90;;;;;;4973863;28;20451;-69
2021/06/15 03:12:18;;;;;;;17.37;16.17;;;16.10;99.90;;;;;;4974510;28;20483;-69
2021/06/15 03:14:49;;;;;;;16.27;15.20;;;16.10;99.90;;;;;;4974731;28;20946;-69
2021/06/15 03:17:17;;;;;;;15.13;14.23;;;16.10;99.90;;;;;;4976677;28;20795;-69
2021/06/15 03:19:52;;;;;;;15.63;14.63;;;16.00;99.90;;;;;;4974146;28;20487;-69
2021/06/15 03:22:22;;;;;;;16.20;15.20;;;16.00;99.90;;;;;;4974240;28;20458;-69
2021/06/15 03:24:55;;;;;;;16.80;15.60;;;16.00;99.90;;;;;;4974050;28;20458;-69
2021/06/15 03:27:31;;;;;;;16.27;15.10;;;16.00;99.90;;;;;;4974433;28;20455;-69
2021/06/15 03:29:58;;;;;;;14.93;14.13;;;16.00;99.90;;;;;;4974179;28;20538;-67
2021/06/15 03:32:27;;;;;;;15.37;14.30;;;16.00;99.90;;;;;;4974140;28;20816;-69
2021/06/15 03:34:56;;;;;;;15.53;14.67;;;16.00;99.90;;;;;;4974101;28;20450;-67
2021/06/15 03:37:25;;;;;;;17.43;15.93;;;15.90;99.90;;;;;;4973928;28;20447;-67
2021/06/15 03:39:56;;;;;;;16.50;15.27;;;16.00;99.90;;;;;;4973795;28;20495;-68
2021/06/15 03:42:25;;;;;;;16.43;15.03;;;15.90;99.90;;;;;;4973537;28;20487;-68
2021/06/15 03:44:55;;;;;;;16.60;15.60;;;16.00;99.90;;;;;;4974055;28;20456;-67
2021/06/15 03:47:24;;;;;;;16.30;15.20;;;16.00;99.90;;;;;;4973762;28;20451;-68
2021/06/15 03:49:53;;;;;;;16.23;15.20;;;15.90;99.90;;;;;;4973766;28;20455;-68
2021/06/15 03:52:21;;;;;;;15.60;14.50;;;15.90;99.90;;;;;;4973658;28;20538;-68
2021/06/15 03:54:48;;;;;;;16.57;15.53;;;15.90;99.90;;;;;;4973407;28;20443;-68
2021/06/15 03:57:17;;;;;;;19.10;17.70;;;15.90;99.90;;;;;;4973172;28;20478;-68
2021/06/15 03:59:47;;;;;;;15.70;14.90;;;16.00;99.90;;;;;;4973275;28;20487;-68
2021/06/15 04:02:15;;;;;;;16.93;15.77;;;15.90;99.90;;;;;;4973566;28;20880;-68
2021/06/15 04:04:46;;;;;;;16.93;15.83;;;16.00;99.90;;;;;;4973566;28;20448;-68
2021/06/15 04:07:18;;;;;;;16.90;15.70;;;16.10;99.90;;;;;;4973311;28;20447;-68
2021/06/15 04:09:46;;;;;;;16.57;15.03;;;16.20;99.90;;;;;;4973147;28;20456;-68
2021/06/15 04:12:14;;;;;;;16.93;15.67;;;16.30;99.90;;;;;;4973271;28;20451;-68
2021/06/15 04:14:46;;;;;;;18.23;17.07;;;16.30;99.90;;;;;;4973469;28;20824;-69
2021/06/15 04:17:15;;;;;;;17.53;16.30;;;16.30;99.90;;;;;;4973161;28;20455;-68
2021/06/15 04:19:46;;;;;;;17.67;16.30;;;16.30;99.90;;;;;;4972911;28;20483;-68
2021/06/15 04:22:15;;;;;;;18.00;16.40;;;16.40;99.90;;;;;;4973540;28;20464;-68
2021/06/15 04:24:47;;;;;;;17.97;16.53;;;17.00;99.90;;;;;;4973050;28;20463;-69
2021/06/15 04:27:15;;;;;;;18.57;17.43;;;17.60;99.90;;;;;;4972931;28;20458;-68
2021/06/15 04:29:43;;;;;;;19.80;18.50;;;17.90;99.90;;;;;;4972889;28;20953;-68
2021/06/15 04:32:12;;;;;;;22.97;21.37;;;18.20;99.90;;;;;;4973089;28;20463;-68
2021/06/15 04:34:43;;;;;;;23.20;21.40;;;18.40;99.90;;;;;;4973069;28;20456;-68
2021/06/15 04:37:11;;;;;;;22.73;20.97;;;18.50;99.90;;;;;;4972835;28;20462;-69
2021/06/15 04:39:43;;;;;;;20.23;18.90;;;18.50;99.90;;;;;;4972949;28;20523;-69
2021/06/15 04:42:15;;;;;;;18.40;17.20;;;19.00;99.90;;;;;;4972826;28;20514;-69
2021/06/15 04:44:43;;;;;;;19.37;17.90;;;19.00;99.90;;;;;;4972818;28;20817;-69
2021/06/15 04:47:15;;;;;;;17.63;16.70;;;18.80;99.90;;;;;;4972575;28;20451;-69
2021/06/15 04:49:47;;;;;;;17.20;16.00;;;19.00;99.90;;;;;;4972740;28;20526;-68
2021/06/15 04:52:18;;;;;;;15.87;14.90;;;19.10;99.90;;;;;;4972731;28;20459;-68
2021/06/15 04:54:48;;;;;;;17.13;16.10;;;19.30;99.90;;;;;;4972845;28;20448;-68
2021/06/15 04:57:19;;;;;;;16.63;15.60;;;19.40;99.90;;;;;;4972491;28;20452;-68
2021/06/15 04:59:51;;;;;;;16.70;15.70;;;19.60;99.90;;;;;;4972521;28;20483;-68
2021/06/15 05:02:21;;;;;;;16.67;15.47;;;19.80;99.90;;;;;;4972243;28;20827;-69
2021/06/15 05:04:48;;;;;;;18.23;17.00;;;20.00;99.90;;;;;;4972561;28;20455;-68
2021/06/15 05:07:17;;;;;;;16.47;15.53;;;20.30;99.90;;;;;;4972050;28;20459;-68
2021/06/15 05:09:45;;;;;;;15.60;14.80;;;20.70;99.90;;;;;;4971978;28;20444;-68
2021/06/15 05:12:13;;;;;;;16.40;15.37;;;20.90;99.90;;;;;;4972287;28;20460;-69
2021/06/15 05:14:43;;;;;;;17.07;16.07;;;21.30;99.90;;;;;;4972231;28;20464;-69
2021/06/15 05:17:12;;;;;;;16.87;15.87;;;21.20;99.90;;;;;;4972241;28;20452;-69
2021/06/15 05:19:41;;;;;;;18.17;17.00;;;21.20;99.90;;;;;;4971834;28;20488;-69
2021/06/15 05:22:15;;;;;;;17.87;16.47;;;21.40;99.90;;;;;;4972126;28;20485;-69
2021/06/15 05:24:50;;;;;;;16.47;15.47;;;21.40;99.90;;;;;;4972343;28;20800;-69
2021/06/15 05:27:18;;;;;;;16.70;15.63;;;21.60;99.90;;;;;;4972004;28;20436;-69
2021/06/15 05:29:45;;;;;;;15.77;14.77;;;21.70;99.90;;;;;;4970962;28;20447;-69
2021/06/15 05:32:12;;;;;;;16.33;15.10;;;21.90;99.90;;;;;;4971989;28;20448;-70
2021/06/15 05:34:41;;;;;;;14.83;14.03;;;22.00;99.90;;;;;;4972175;28;20471;-70
2021/06/15 05:37:08;;;;;;;14.73;13.73;;;21.90;99.90;;;;;;4972023;28;20817;-70
2021/06/15 05:39:36;;;;;;;15.20;14.27;;;21.90;99.90;;;;;;4971903;28;20491;-70
2021/06/15 05:42:03;;;;;;;14.20;13.40;;;22.30;99.60;;;;;;4971748;28;20491;-70
2021/06/15 05:44:30;;;;;;;15.77;14.07;;;22.30;99.60;;;;;;4971866;28;20447;-70
2021/06/15 05:46:58;;;;;;;16.33;14.93;;;22.70;99.20;;;;;;4971985;28;20980;-70
2021/06/15 05:49:25;;;;;;;14.37;13.67;;;22.70;99.00;;;;;;4971922;28;20458;-70
2021/06/15 05:51:58;;;;;;;14.83;14.07;;;23.00;98.80;;;;;;4971980;28;20456;-70
2021/06/15 05:54:24;;;;;;;16.77;15.27;;;23.20;98.30;;;;;;4971952;28;20942;-71
2021/06/15 05:56:51;;;;;;;15.50;14.47;;;23.60;97.90;;;;;;4971710;28;20455;-70
2021/06/15 05:59:18;;;;;;;16.00;15.00;;;23.90;96.60;;;;;;4971501;28;20490;-70
2021/06/15 06:01:44;;;;;;;16.80;16.00;;;23.70;96.70;;;;;;4971398;28;20451;-70
2021/06/15 06:04:13;;;;;;;16.70;15.80;;;24.10;96.50;;;;;;4971985;28;20463;-70
2021/06/15 06:09:26;;;;;;;16.47;15.37;;;25.00;94.70;;;;;;4971626;28;20430;-70
2021/06/15 06:11:52;;;;;;;17.30;15.83;;;25.70;93.60;;;;;;4972193;28;20450;-70
2021/06/15 06:14:19;;;;;;;17.87;16.10;;;26.20;92.70;;;;;;4971369;28;20462;-71
2021/06/15 06:16:46;;;;;;;20.37;15.90;;;26.30;91.90;;;;;;4970865;28;20451;-71
2021/06/15 06:19:15;;;;;;;15.83;14.83;;;26.30;91.80;;;;;;4971329;28;20494;-70
2021/06/15 06:21:43;;;;;;;19.43;17.47;;;26.10;91.60;;;;;;4971542;28;20447;-70
2021/06/15 06:24:11;;;;;;;16.03;15.10;;;26.20;92.20;;;;;;4971498;28;20456;-70
2021/06/15 06:26:39;;;;;;;18.23;16.93;;;26.30;91.40;;;;;;4971356;28;20456;-71
2021/06/15 06:29:06;;;;;;;15.10;14.20;;;26.50;90.80;;;;;;4971456;28;20964;-70
2021/06/15 06:31:33;;;;;;;16.30;15.30;;;26.50;90.90;;;;;;4971496;28;20452;-70
2021/06/15 06:34:00;;;;;;;15.97;15.07;;;26.20;90.50;;;;;;4971488;28;20481;-70
2021/06/15 06:36:27;;;;;;;15.83;15.03;;;26.10;91.10;;;;;;4971532;28;20459;-70
2021/06/15 06:38:54;;;;;;;16.63;15.63;;;26.60;90.50;;;;;;4971113;28;20510;-71
2021/06/15 06:41:21;;;;;;;15.80;14.90;;;26.70;90.10;;;;;;4974013;28;20487;-71
2021/06/15 06:43:49;;;;;;;14.80;13.67;;;26.80;90.20;;;;;;4974035;28;20451;-71
2021/06/15 06:46:16;;;;;;;15.07;13.67;;;27.40;88.80;;;;;;4974611;28;20459;-71
2021/06/15 06:48:43;;;;;;;14.67;13.97;;;27.60;86.20;;;;;;4975018;28;20918;-71
2021/06/15 06:51:09;;;;;;;16.23;15.33;;;28.00;84.90;;;;;;4974513;28;20455;-71
2021/06/15 06:53:37;;;;;;;15.47;14.30;;;27.80;84.30;;;;;;4974416;28;20456;-70
2021/06/15 06:56:06;;;;;;;14.60;13.80;;;27.50;85.90;;;;;;4974487;28;20456;-69
2021/06/15 06:58:32;;;;;;;16.07;15.07;;;27.50;85.80;;;;;;4974132;28;20531;-69
2021/06/15 07:01:01;;;;;;;15.13;14.40;;;27.70;84.00;;;;;;4974222;28;20499;-69
2021/06/15 07:03:28;;;;;;;15.00;14.27;;;27.80;83.80;;;;;;4974162;28;20474;-69
2021/06/15 07:05:54;;;;;;;15.40;14.50;;;27.70;84.00;;;;;;4974709;28;20470;-69
2021/06/15 07:08:21;;;;;;;15.70;14.90;;;28.00;84.00;;;;;;4974351;28;20448;-70
2021/06/15 07:10:48;;;;;;;15.23;14.53;;;28.50;82.30;;;;;;4974356;28;20455;-69
2021/06/15 07:13:15;;;;;;;15.93;15.23;;;29.20;80.10;;;;;;4974025;28;20455;-69
2021/06/15 07:15:42;;;;;;;15.03;14.20;;;29.70;78.00;;;;;;4974414;28;20463;-69
2021/06/15 07:18:10;;;;;;;14.20;13.60;;;29.70;77.20;;;;;;4974077;28;20463;-69
2021/06/15 07:20:37;;;;;;;15.93;14.93;;;30.00;76.50;;;;;;4974343;28;20487;-69
2021/06/15 07:23:03;;;;;;;15.10;14.27;;;30.30;75.20;;;;;;4974148;28;20486;-69
2021/06/15 07:25:30;;;;;;;15.30;14.50;;;30.50;74.00;;;;;;4973900;28;20478;-69
2021/06/15 07:27:59;;;;;;;15.10;14.40;;;30.60;71.80;;;;;;4974113;28;20451;-69
2021/06/15 07:30:26;;;;;;;15.43;14.73;;;30.70;71.60;;;;;;4974025;28;20456;-69
2021/06/15 07:32:56;;;;;;;15.37;14.40;;;30.40;71.70;;;;;;4974087;28;20455;-69
2021/06/15 07:35:25;;;;;;;16.30;15.20;;;30.50;72.30;;;;;;4973863;28;20499;-70
2021/06/15 07:37:52;;;;;;;17.30;16.40;;;30.80;70.40;;;;;;4974361;28;20455;-70
2021/06/15 07:40:23;;;;;;;15.60;14.53;;;31.20;69.50;;;;;;4971709;28;21001;-70
2021/06/15 07:42:50;;;;;;;16.43;15.50;;;31.10;68.00;;;;;;4973439;28;20487;-69
2021/06/15 07:45:17;;;;;;;16.83;15.93;;;31.00;68.40;;;;;;4973467;28;20450;-69
2021/06/15 07:47:44;;;;;;;16.43;15.23;;;31.20;68.10;;;;;;4973817;28;20466;-70
2021/06/15 07:50:11;;;;;;;15.43;14.63;;;31.70;65.80;;;;;;4973802;28;20447;-69
2021/06/15 07:52:39;;;;;;;15.33;14.23;;;31.20;66.30;;;;;;4974437;28;20456;-69
2021/06/15 07:55:07;;;;;;;16.30;15.30;;;31.60;65.80;;;;;;4975223;28;20456;-70
2021/06/15 07:57:34;;;;;;;15.07;14.37;;;31.70;63.50;;;;;;4974632;28;20463;-69
2021/06/15 08:00:00;;;;;;;15.50;14.77;;;32.00;62.90;;;;;;4974186;28;20491;-70
2021/06/15 08:02:28;;;;;;;15.97;14.90;;;32.20;62.00;;;;;;4973367;28;20550;-71
2021/06/15 08:04:55;;;;;;;16.50;15.40;;;32.10;61.50;;;;;;4973646;28;20819;-70
2021/06/15 08:07:21;;;;;;;15.07;14.20;;;32.00;61.10;;;;;;4973499;28;20475;-70
2021/06/15 08:09:49;;;;;;;15.43;14.73;;;32.00;60.90;;;;;;4973254;28;20455;-70
2021/06/15 08:12:17;;;;;;;15.90;15.10;;;32.00;61.30;;;;;;4973410;28;20460;-70
2021/06/15 08:14:44;;;;;;;14.97;14.00;;;32.20;60.40;;;;;;4973162;28;20459;-71
2021/06/15 08:17:11;;;;;;;15.13;14.47;;;32.90;57.90;;;;;;4973077;28;20455;-70
2021/06/15 08:19:37;;;;;;;14.97;14.33;;;33.20;58.10;;;;;;4972997;28;20484;-70
2021/06/15 08:22:04;;;;;;;16.03;15.30;;;33.10;57.40;;;;;;4972768;28;20467;-70
2021/06/15 08:24:31;;;;;;;16.10;15.50;;;33.00;57.80;;;;;;4972840;28;20458;-70
2021/06/15 08:26:59;;;;;;;16.70;15.80;;;33.60;56.90;;;;;;4972398;28;20448;-70
2021/06/15 08:29:26;;;;;;;15.50;14.80;;;34.10;55.60;;;;;;4972868;28;20459;-70
2021/06/15 08:31:53;;;;;;;17.23;15.70;;;34.70;54.80;;;;;;4972614;28;20463;-69
2021/06/15 08:34:20;;;;;;;17.93;16.30;;;35.30;53.60;;;;;;4972435;28;20494;-69
2021/06/15 08:36:47;;;;;;;18.20;17.20;;;36.00;51.60;;;;;;4972450;28;20455;-69
2021/06/15 08:39:13;;;;;;;17.00;16.20;;;36.30;50.70;;;;;;4972356;28;20452;-69
2021/06/15 08:41:41;;;;;;;15.97;15.17;;;36.70;48.00;;;;;;4972068;28;20491;-69
2021/06/15 08:44:10;;;;;;;16.57;15.50;;;37.10;47.20;;;;;;4972676;28;20478;-70
2021/06/15 08:46:37;;;;;;;16.67;15.87;;;38.00;45.30;;;;;;4972243;28;20452;-69
2021/06/15 08:49:06;;;;;;;17.30;16.50;;;38.00;43.70;;;;;;4972410;28;20464;-70
2021/06/15 08:51:34;;;;;;;16.43;15.60;;;37.40;44.40;;;;;;4971979;28;20550;-69
2021/06/15 08:54:04;;;;;;;15.83;15.23;;;37.40;43.90;;;;;;4972307;28;20455;-70
2021/06/15 08:56:32;;;;;;;18.73;17.73;;;37.80;43.60;;;;;;4972409;28;20659;-69
2021/06/15 08:59:07;;;;;;;17.10;16.30;;;37.60;43.70;;;;;;4972160;28;20451;-70
2021/06/15 09:01:35;;;;;;;16.70;15.80;;;37.40;44.60;;;;;;4971987;28;20449;-69
2021/06/15 09:04:02;;;;;;;16.20;15.50;;;37.80;44.10;;;;;;4971156;28;20451;-70
2021/06/15 09:06:29;;;;;;;15.63;14.93;;;37.30;44.90;;;;;;4971751;28;20451;-70
2021/06/15 09:08:58;;;;;;;16.70;15.90;;;36.90;45.00;;;;;;4971807;28;20452;-70
2021/06/15 09:11:26;;;;;;;15.80;14.90;;;36.10;43.40;;;;;;4972199;28;20502;-70
2021/06/15 09:13:54;;;;;;;16.70;16.07;;;36.00;44.40;;;;;;4972041;28;20487;-70
2021/06/15 09:16:24;;;;;;;17.53;16.67;;;35.30;45.10;;;;;;4971917;28;20809;-70
2021/06/15 09:18:56;;;;;;;16.73;15.93;;;35.00;45.50;;;;;;4971850;28;20456;-70
2021/06/15 09:21:41;;;;;;;16.73;16.03;;;35.50;45.30;;;;;;4971953;28;20820;-71
2021/06/15 09:24:11;;;;;;;16.00;15.37;;;36.60;42.60;;;;;;4972065;28;20451;-70
2021/06/15 09:27:06;;;;;;;16.30;15.60;;;37.10;42.90;;;;;;4972071;28;20448;-70
2021/06/15 09:29:38;;;;;;;16.10;15.40;;;36.70;41.80;;;;;;4971597;28;20471;-70
2021/06/15 09:32:06;;;;;;;17.03;16.17;;;36.40;42.30;;;;;;4972067;28;20787;-70
2021/06/15 09:34:34;;;;;;;16.87;16.17;;;35.60;43.30;;;;;;4972099;28;20455;-70
2021/06/15 09:37:05;;;;;;;16.87;16.17;;;36.00;43.50;;;;;;4971868;28;20828;-70
2021/06/15 09:39:33;;;;;;;16.40;15.30;;;35.80;43.00;;;;;;4971990;28;20455;-71
2021/06/15 09:42:00;;;;;;;15.83;15.23;;;36.60;43.10;;;;;;4971472;28;20483;-71
2021/06/15 09:44:29;;;;;;;15.77;15.17;;;37.40;41.50;;;;;;4971873;28;20554;-71
2021/06/15 09:46:58;;;;;;;16.43;15.73;;;37.30;41.50;;;;;;4971532;28;20830;-69
2021/06/15 09:49:30;;;;;;;14.77;14.07;;;37.00;41.60;;;;;;4971864;28;20521;-69
2021/06/15 09:52:14;;;;;;;15.37;14.77;;;37.00;40.90;;;;;;4971694;28;20495;-69
2021/06/15 09:54:42;;;;;;;15.00;14.40;;;37.00;41.40;;;;;;4971921;28;20455;-69
2021/06/15 09:57:12;;;;;;;16.43;15.83;;;37.70;40.60;;;;;;4971987;28;20463;-70
2021/06/15 09:59:58;;;;;;;14.53;14.03;;;37.60;39.30;;;;;;4972159;28;20458;-69
2021/06/15 10:02:25;;;;;;;16.40;15.80;;;38.20;38.60;;;;;;4971549;28;20455;-70
2021/06/15 10:04:52;;;;;;;16.07;15.47;;;38.50;37.80;;;;;;4971622;28;20463;-70
2021/06/15 10:07:27;;;;;;;16.70;15.90;;;37.80;38.40;;;;;;4971543;28;20452;-70
2021/06/15 10:09:54;;;;;;;15.33;14.73;;;37.70;38.50;;;;;;4971365;28;20950;-70
2021/06/15 10:12:21;;;;;;;16.33;15.60;;;38.40;37.30;;;;;;4971406;28;20846;-70
2021/06/15 10:14:48;;;;;;;16.10;15.40;;;37.80;37.60;;;;;;4972790;28;20458;-70
2021/06/15 10:17:15;;;;;;;15.10;14.40;;;37.90;37.20;;;;;;4975348;28;20467;-70
2021/06/15 10:19:42;;;;;;;15.73;15.13;;;37.70;38.10;;;;;;4975376;28;20816;-70
2021/06/15 10:22:09;;;;;;;15.80;15.00;;;38.00;36.30;;;;;;4975468;28;20447;-70
2021/06/15 10:24:37;;;;;;;14.87;14.37;;;37.30;37.20;;;;;;4975192;28;20458;-70
2021/06/15 10:27:06;;;;;;;15.10;14.40;;;38.30;36.40;;;;;;4974775;28;20462;-70
2021/06/15 10:29:34;;;;;;;15.70;15.03;;;38.60;36.10;;;;;;4975013;28;20462;-71
2021/06/15 10:32:11;;;;;;;15.23;14.40;;;38.60;34.60;;;;;;4974787;28;20927;-70
2021/06/15 10:34:50;;;;;;;16.60;15.90;;;39.00;34.60;;;;;;4975176;28;20813;-70
2021/06/15 10:37:43;;;;;;;15.30;14.70;;;39.10;35.30;;;;;;4975136;28;20513;-70
2021/06/15 10:40:39;;;;;;;16.03;15.23;;;39.00;35.30;;;;;;4974819;28;20978;-70
2021/06/15 10:43:17;;;;;;;16.13;15.40;;;38.90;35.30;;;;;;4974452;28;20833;-70
2021/06/15 10:45:44;;;;;;;16.00;15.40;;;38.60;35.20;;;;;;4974299;28;20825;-70
2021/06/15 10:48:39;;;;;;;17.60;16.27;;;38.00;34.60;;;;;;4974123;28;20874;-70
2021/06/15 10:51:28;;;;;;;19.93;18.30;;;37.50;35.40;;;;;;4973852;28;20571;-70
2021/06/15 10:54:02;;;;;;;17.10;16.47;;;38.10;35.10;;;;;;4974244;28;20447;-70
2021/06/15 10:56:33;;;;;;;16.97;16.07;;;37.30;35.50;;;;;;4973734;28;20503;-70
2021/06/15 10:59:08;;;;;;;16.57;15.97;;;36.60;36.80;;;;;;4973859;28;20459;-70
2021/06/15 11:01:42;;;;;;;17.20;16.60;;;36.90;36.30;;;;;;4973754;28;20461;-69
2021/06/15 11:04:11;;;;;;;16.70;16.00;;;37.90;35.00;;;;;;4974044;28;20490;-69
2021/06/15 11:06:46;;;;;;;16.00;15.20;;;38.20;35.50;;;;;;4974088;28;20455;-69
2021/06/15 11:09:19;;;;;;;14.77;14.07;;;38.50;34.70;;;;;;4974017;28;20459;-69
2021/06/15 11:11:49;;;;;;;16.50;15.90;;;39.20;33.80;;;;;;4973810;28;20527;-69
2021/06/15 11:14:19;;;;;;;15.50;14.90;;;39.30;33.10;;;;;;4973707;28;20466;-70
2021/06/15 11:16:47;;;;;;;15.00;14.40;;;39.10;33.40;;;;;;4973773;28;20905;-70
2021/06/15 11:19:33;;;;;;;17.60;16.80;;;40.00;32.50;;;;;;4973676;28;20466;-70
2021/06/15 11:22:01;;;;;;;16.00;15.50;;;39.80;31.20;;;;;;4973364;28;20552;-70
2021/06/15 11:24:30;;;;;;;17.30;16.50;;;39.30;32.70;;;;;;4973516;28;20451;-70
2021/06/15 11:27:00;;;;;;;16.30;15.53;;;38.70;32.90;;;;;;4972826;28;20447;-70
2021/06/15 11:29:31;;;;;;;15.00;14.40;;;36.70;34.70;;;;;;4973781;28;20463;-70
2021/06/15 11:32:22;;;;;;;16.50;15.77;;;36.20;35.40;;;;;;4973411;28;20526;-69
2021/06/15 11:35:18;;;;;;;16.60;15.90;;;36.70;35.70;;;;;;4973662;28;20873;-70
2021/06/15 11:37:47;;;;;;;16.63;16.00;;;37.70;34.60;;;;;;4973145;28;20875;-69
2021/06/15 11:40:19;;;;;;;16.40;15.70;;;38.20;33.80;;;;;;4973396;28;20464;-70
2021/06/15 11:42:49;;;;;;;16.97;16.37;;;38.10;34.00;;;;;;4973203;28;20560;-70
2021/06/15 11:45:29;;;;;;;17.60;16.90;;;38.60;32.40;;;;;;4973080;28;20548;-70
2021/06/15 11:48:14;;;;;;;17.40;16.70;;;38.70;32.70;;;;;;4973189;28;20436;-70
2021/06/15 11:50:45;;;;;;;16.03;15.43;;;39.40;32.10;;;;;;4973225;28;20488;-70
2021/06/15 11:53:14;;;;;;;17.10;16.50;;;39.60;31.10;;;;;;4973323;28;20462;-70
2021/06/15 11:55:42;;;;;;;16.87;16.17;;;39.40;30.70;;;;;;4973181;28;20566;-70
2021/06/15 11:58:15;;;;;;;15.97;15.47;;;39.40;31.90;;;;;;4973110;28;20853;-70
2021/06/15 12:00:44;;;;;;;15.40;14.80;;;39.20;31.00;;;;;;4973176;28;20480;-70
2021/06/15 12:03:14;;;;;;;16.47;15.83;;;40.00;29.70;;;;;;4973096;28;20462;-70
2021/06/15 12:05:42;;;;;;;17.23;16.50;;;40.30;28.50;;;;;;4973140;28;20526;-71
2021/06/15 12:08:10;;;;;;;15.93;15.23;;;40.70;29.00;;;;;;4972820;28;20447;-70
2021/06/15 12:10:37;;;;;;;17.10;16.40;;;38.70;31.40;;;;;;4972462;28;20463;-70
2021/06/15 12:13:08;;;;;;;16.30;15.50;;;37.70;33.00;;;;;;4972680;28;20464;-70
2021/06/15 12:15:42;;;;;;;16.80;16.10;;;37.90;33.40;;;;;;4972766;28;20542;-69
2021/06/15 12:18:10;;;;;;;16.67;16.07;;;38.10;33.20;;;;;;4972764;28;20456;-69
2021/06/15 12:20:40;;;;;;;17.47;16.70;;;38.30;33.50;;;;;;4972532;28;20459;-69
2021/06/15 12:23:24;;;;;;;16.27;15.67;;;38.00;33.10;;;;;;4972932;28;20447;-70
2021/06/15 12:25:53;;;;;;;15.70;14.80;;;37.50;33.60;;;;;;4972882;28;20890;-70
2021/06/15 12:28:21;;;;;;;16.03;15.00;;;37.40;33.70;;;;;;4973020;28;20478;-69
2021/06/15 12:31:01;;;;;;;16.80;16.20;;;37.70;33.50;;;;;;4972483;28;20518;-70
2021/06/15 12:33:28;;;;;;;16.70;15.93;;;37.90;34.30;;;;;;4972376;28;20456;-69
2021/06/15 12:35:58;;;;;;;16.10;15.40;;;37.90;33.70;;;;;;4972396;28;20460;-70
2021/06/15 12:38:25;;;;;;;16.10;15.27;;;37.50;33.90;;;;;;4972517;28;20487;-70
2021/06/15 12:40:52;;;;;;;16.90;16.17;;;37.60;32.80;;;;;;4971997;28;21001;-70
2021/06/15 12:43:22;;;;;;;16.70;16.00;;;38.30;31.30;;;;;;4972175;28;20459;-70
2021/06/15 12:45:49;;;;;;;16.50;15.83;;;38.60;31.70;;;;;;4972001;28;20444;-70